Syouhakumaru — JD4259 — position and weather

sailwx.info

Track history (hours):
 
Tides and Currents Weather Stations Pressure Air Temp Water Temp Dewpoint Dewpoint Depression Visibility Wind Speed Wind Dir Waves Ship Positions

Syouhakumaru

Last reported at 2017-Sep-28 08:14 UTC. Time now 2017-Oct-22 23:06 UTC.
Position N 34°37' E 134°57'.
Warning: this ship's position is 24 days out of date.

Length 79 m; draft 4 m.

Type: Cargo ship. MMSI: 431010062.

Date/timePositionNaut miles runAvg speedWind from/ knotsBaromVisibWave heightAir tempDewpointWater temp
2017-Sep-28 08:14N 34°37' E 134°57'411.5
2017-Sep-28 07:55N 34°37' E 135°01'511.8
2017-Sep-28 07:30N 34°36' E 135°07'612.3
2017-Sep-28 06:59N 34°37' E 135°15'612.6
2017-Sep-28 06:31N 34°39' E 135°21'4 0.7
2017-Sep-28 00:41N 34°37' E 135°26'0 0.8
2017-Sep-28 00:31N 34°37' E 135°26'2 3.3
2017-Sep-27 23:46N 34°37' E 135°23'1 2.7
2017-Sep-27 23:30N 34°37' E 135°22'510.8
2017-Sep-27 23:00N 34°36' E 135°16'612.0
2017-Sep-27 22:30N 34°35' E 135°08'612.9
2017-Sep-27 22:00N 34°37' E 135°01'3 0.1
2017-Sep-26 04:41N 34°37' E 134°58'312.7
2017-Sep-26 04:28N 34°37' E 135°01'612.0
2017-Sep-26 04:00N 34°36' E 135°08'612.0
2017-Sep-26 03:30N 34°37' E 135°15'611.0
2017-Sep-26 03:00N 34°36' E 135°22'3 0.5
2017-Sep-25 20:16N 34°35' E 135°26'0 0.0
2017-Sep-25 11:22N 34°35' E 135°26'0 0.0
2017-Sep-25 10:58N 34°35' E 135°26'0 0.0
2017-Sep-25 10:28N 34°35' E 135°26'0 0.0
2017-Sep-25 08:40N 34°35' E 135°26'0 0.0
2017-Sep-25 08:22N 34°35' E 135°26'0 0.8
2017-Sep-25 07:59N 34°35' E 135°25'0 0.1
2017-Sep-25 07:29N 34°35' E 135°25'0 0.1
2017-Sep-25 06:59N 34°35' E 135°25'2 4.1
2017-Sep-25 06:30N 34°35' E 135°23'4 7.6
2017-Sep-25 06:00N 34°31' E 135°24'0 0.0
2017-Sep-25 05:30N 34°31' E 135°24'0 0.0
2017-Sep-25 05:00N 34°31' E 135°24'0 0.0
2017-Sep-25 04:30N 34°31' E 135°24'0 0.0
2017-Sep-25 04:00N 34°31' E 135°24'0 0.0
2017-Sep-25 03:30N 34°31' E 135°24'0 0.0
2017-Sep-25 03:00N 34°31' E 135°24'0 0.0
2017-Sep-25 02:18N 34°31' E 135°24'0 0.0
2017-Sep-25 01:48N 34°31' E 135°24'0 0.0
2017-Sep-25 01:30N 34°31' E 135°24'0 0.0
2017-Sep-25 01:00N 34°31' E 135°24'0 0.0
2017-Sep-24 19:48N 34°31' E 135°24'0 0.0
2017-Sep-24 19:30N 34°31' E 135°24'0 0.0
2017-Sep-24 18:17N 34°31' E 135°24'0 0.0
2017-Sep-24 17:12N 34°31' E 135°24'0 0.0
2017-Sep-24 17:00N 34°31' E 135°24'0 0.0
2017-Sep-24 16:23N 34°31' E 135°24'0 0.0
2017-Sep-24 15:59N 34°31' E 135°24'0 0.0
2017-Sep-24 15:29N 34°31' E 135°24'0 0.0
2017-Sep-24 14:53N 34°31' E 135°24'0 0.0
2017-Sep-24 14:29N 34°31' E 135°24'0 0.0
2017-Sep-24 13:53N 34°31' E 135°24'0 0.0
2017-Sep-24 13:29N 34°31' E 135°24'0 0.0
2017-Sep-24 12:59N 34°31' E 135°24'0 0.0
2017-Sep-24 12:30N 34°31' E 135°24'0 0.0
2017-Sep-24 11:59N 34°31' E 135°24'0 0.0
2017-Sep-24 11:29N 34°31' E 135°24'0 0.0
2017-Sep-24 10:59N 34°31' E 135°24'0 0.0
2017-Sep-24 10:23N 34°31' E 135°24'0 0.0
2017-Sep-24 09:54N 34°31' E 135°24'0 0.0
2017-Sep-24 09:29N 34°31' E 135°24'0 0.0
2017-Sep-24 08:41N 34°31' E 135°24'0 0.0
2017-Sep-24 08:17N 34°31' E 135°24'0 0.0
2017-Sep-24 07:53N 34°31' E 135°24'0 0.0
2017-Sep-24 07:23N 34°31' E 135°24'0 0.0
2017-Sep-24 06:59N 34°31' E 135°24'0 0.0
2017-Sep-24 06:30N 34°31' E 135°24'0 0.0
2017-Sep-24 06:00N 34°31' E 135°24'0 0.0
2017-Sep-24 05:29N 34°31' E 135°24'0 0.0
2017-Sep-24 04:41N 34°31' E 135°24'0 0.0
2017-Sep-24 04:29N 34°31' E 135°24'0 0.0
2017-Sep-24 02:17N 34°31' E 135°24'0 0.0
2017-Sep-24 01:00N 34°31' E 135°24'0 0.0
2017-Sep-24 00:29N 34°31' E 135°24'0 0.0
2017-Sep-23 23:59N 34°31' E 135°24'0 0.0
2017-Sep-23 22:23N 34°31' E 135°24'0 0.0
2017-Sep-23 21:53N 34°31' E 135°24'0 0.0
2017-Sep-23 21:29N 34°31' E 135°24'0 0.0
2017-Sep-23 20:59N 34°31' E 135°24'0 0.0
2017-Sep-23 20:29N 34°31' E 135°24'0 0.0
2017-Sep-23 19:59N 34°31' E 135°24'  
2017-Sep-21 10:13N 34°54' E 139°23'2 9.4
2017-Sep-21 09:59N 34°55' E 139°25'5 9.6
2017-Sep-21 09:30N 34°58' E 139°30'611.2
2017-Sep-21 09:00N 35°02' E 139°35'611.6
2017-Sep-21 08:30N 35°06' E 139°40'510.8
2017-Sep-21 08:00N 35°10' E 139°44'611.0
2017-Sep-21 07:30N 35°15' E 139°46'510.8
2017-Sep-21 07:00N 35°20' E 139°43'510.9
2017-Sep-21 06:30N 35°25' E 139°43'4 8.7
2017-Sep-21 06:00N 35°29' E 139°43'0 0.4
2017-Sep-21 05:30N 35°29' E 139°43'0 0.0
2017-Sep-21 05:00N 35°29' E 139°43'0 0.0
2017-Sep-21 04:30N 35°29' E 139°43'0 0.0
2017-Sep-21 04:00N 35°29' E 139°43'0 0.0
2017-Sep-21 03:30N 35°29' E 139°43'0 0.0
2017-Sep-21 03:00N 35°29' E 139°43'0 0.0
2017-Sep-21 02:30N 35°29' E 139°43'0 0.0
2017-Sep-21 02:00N 35°29' E 139°43'0 0.0
2017-Sep-21 01:30N 35°29' E 139°43'0 0.0
2017-Sep-21 01:00N 35°29' E 139°43'0 0.0
2017-Sep-21 00:30N 35°29' E 139°43'0 0.0
2017-Sep-21 00:00N 35°29' E 139°43'0 0.0
2017-Sep-20 23:27N 35°29' E 139°43'0 0.0
2017-Sep-20 23:00N 35°29' E 139°43'0 0.0
2017-Sep-20 22:30N 35°29' E 139°43'0 0.0
2017-Sep-20 22:00N 35°29' E 139°43'0 0.0
2017-Sep-20 21:30N 35°29' E 139°43'0 0.0
2017-Sep-20 21:00N 35°29' E 139°43'0 0.0
2017-Sep-20 20:30N 35°29' E 139°43'0 0.0
2017-Sep-20 20:00N 35°29' E 139°43'0 0.0
2017-Sep-20 19:30N 35°29' E 139°43'0 0.0
2017-Sep-20 19:00N 35°29' E 139°43'0 0.0
2017-Sep-20 18:30N 35°29' E 139°43'0 0.0
2017-Sep-20 17:57N 35°29' E 139°43'0 0.0
2017-Sep-20 17:30N 35°29' E 139°43'0 0.0
2017-Sep-20 16:57N 35°29' E 139°43'0 0.0
2017-Sep-20 16:30N 35°29' E 139°43'0 0.0
2017-Sep-20 16:00N 35°29' E 139°43'0 0.0
2017-Sep-20 15:29N 35°29' E 139°43'0 0.0
2017-Sep-20 15:00N 35°29' E 139°43'0 0.0
2017-Sep-20 14:00N 35°29' E 139°43'0 0.0
2017-Sep-20 13:30N 35°29' E 139°43'0 0.0
2017-Sep-20 13:00N 35°29' E 139°43'0 0.0
2017-Sep-20 12:30N 35°29' E 139°43'0 0.0
2017-Sep-20 12:00N 35°29' E 139°43'0 0.0
2017-Sep-20 11:29N 35°29' E 139°43'0 0.0
2017-Sep-20 11:00N 35°29' E 139°43'0 0.0
2017-Sep-20 10:30N 35°29' E 139°43'0 0.0
2017-Sep-20 09:59N 35°29' E 139°43'0 0.0
2017-Sep-20 09:29N 35°29' E 139°43'0 0.0
2017-Sep-20 08:57N 35°29' E 139°43'0 0.0
2017-Sep-20 08:30N 35°29' E 139°43'0 0.0
2017-Sep-20 07:56N 35°29' E 139°43'0 0.0
2017-Sep-20 07:30N 35°29' E 139°43'0 0.0
2017-Sep-20 06:56N 35°29' E 139°43'0 0.0
2017-Sep-20 06:30N 35°29' E 139°43'0 0.0
2017-Sep-20 05:56N 35°29' E 139°43'0 0.0
2017-Sep-20 05:27N 35°29' E 139°43'0 0.0
2017-Sep-20 04:59N 35°29' E 139°43'0 0.0
2017-Sep-20 04:30N 35°29' E 139°43'0 0.0
2017-Sep-20 03:59N 35°29' E 139°43'0 0.0
2017-Sep-20 03:30N 35°29' E 139°43'0 0.0
2017-Sep-20 02:59N 35°29' E 139°43'0 0.0
2017-Sep-20 02:30N 35°29' E 139°43'0 0.0
2017-Sep-20 02:00N 35°29' E 139°43'0 0.0
2017-Sep-20 01:29N 35°29' E 139°43'0 0.0
2017-Sep-20 00:59N 35°29' E 139°43'0 0.0
2017-Sep-20 00:30N 35°29' E 139°43'0 0.0
2017-Sep-19 23:59N 35°29' E 139°43'0 0.0
2017-Sep-19 23:30N 35°29' E 139°43'0 0.6
2017-Sep-19 23:00N 35°29' E 139°43'2 4.4
2017-Sep-19 22:30N 35°27' E 139°42'0 0.0
2017-Sep-19 22:00N 35°27' E 139°42'0 0.0
2017-Sep-19 21:30N 35°27' E 139°42'0 0.0
2017-Sep-19 21:00N 35°27' E 139°42'0 0.0
2017-Sep-19 20:30N 35°27' E 139°42'0 0.0
2017-Sep-19 20:00N 35°27' E 139°42'0 0.0
2017-Sep-19 19:30N 35°27' E 139°42'0 0.0
2017-Sep-19 19:00N 35°27' E 139°42'0 0.1
2017-Sep-19 18:30N 35°27' E 139°42'0 0.0
2017-Sep-19 18:00N 35°27' E 139°42'0 0.0
2017-Sep-19 17:30N 35°27' E 139°42'0 0.0
2017-Sep-19 17:00N 35°27' E 139°42'1 1.3
2017-Sep-19 16:31N 35°28' E 139°42'1 1.4
2017-Sep-19 15:58N 35°28' E 139°42'0 0.0
2017-Sep-19 15:28N 35°28' E 139°42'0 0.1
2017-Sep-19 14:58N 35°28' E 139°42'0 0.1
2017-Sep-19 14:28N 35°28' E 139°42'0 0.0
2017-Sep-19 13:58N 35°28' E 139°42'0 0.0
2017-Sep-19 13:28N 35°28' E 139°42'0 0.0
2017-Sep-19 12:58N 35°28' E 139°42'0 0.0
2017-Sep-19 12:28N 35°28' E 139°42'0 0.0
2017-Sep-19 11:58N 35°28' E 139°42'0 0.0
2017-Sep-19 11:28N 35°28' E 139°42'0 0.0
2017-Sep-19 10:58N 35°28' E 139°42'0 0.0
2017-Sep-19 10:28N 35°28' E 139°42'0 0.0
2017-Sep-19 09:58N 35°28' E 139°42'0 0.1
2017-Sep-19 09:28N 35°28' E 139°42'0 0.1
2017-Sep-19 08:58N 35°28' E 139°42'0 0.0
2017-Sep-19 08:28N 35°28' E 139°42'0 0.0
2017-Sep-19 07:58N 35°28' E 139°42'0 0.0
2017-Sep-19 07:28N 35°28' E 139°42'0 0.0
2017-Sep-19 06:59N 35°28' E 139°42'2 3.5
2017-Sep-19 06:30N 35°27' E 139°43'0 0.0
2017-Sep-19 05:58N 35°27' E 139°43'0 0.0
2017-Sep-19 05:28N 35°27' E 139°43'0 0.0
2017-Sep-19 04:59N 35°27' E 139°43'0 0.0
2017-Sep-19 04:28N 35°27' E 139°43'0 0.0
2017-Sep-19 03:59N 35°27' E 139°43'0 0.1
2017-Sep-19 03:28N 35°27' E 139°43'0 0.0
2017-Sep-19 02:59N 35°27' E 139°43'0 0.0
2017-Sep-19 02:29N 35°27' E 139°43'0 0.0
2017-Sep-19 01:58N 35°27' E 139°43'0 0.0
2017-Sep-19 01:29N 35°27' E 139°43'0 0.0
2017-Sep-19 00:58N 35°27' E 139°43'0 0.0
2017-Sep-19 00:29N 35°27' E 139°43'0 0.0
2017-Sep-18 23:58N 35°27' E 139°43'0 0.1
2017-Sep-18 23:28N 35°27' E 139°43'0 0.1
2017-Sep-18 22:58N 35°27' E 139°43'0 0.1
2017-Sep-18 22:29N 35°27' E 139°43'0 0.0
2017-Sep-18 21:59N 35°27' E 139°43'0 0.0
2017-Sep-18 21:29N 35°27' E 139°43'0 0.0
2017-Sep-18 20:59N 35°27' E 139°43'0 0.0
2017-Sep-18 20:29N 35°27' E 139°43'0 0.1
2017-Sep-18 19:59N 35°27' E 139°43'0 0.1
2017-Sep-18 19:29N 35°27' E 139°43'0 0.1
2017-Sep-18 18:59N 35°27' E 139°43'0 0.0
2017-Sep-18 18:29N 35°27' E 139°43'0 0.0
2017-Sep-18 17:59N 35°27' E 139°43'0 0.0
2017-Sep-18 17:29N 35°27' E 139°43'0 0.0
2017-Sep-18 16:59N 35°27' E 139°43'0 0.0
2017-Sep-18 16:29N 35°27' E 139°43'0 0.0
2017-Sep-18 15:59N 35°27' E 139°43'0 0.0
2017-Sep-18 15:29N 35°27' E 139°43'0 0.1
2017-Sep-18 14:59N 35°27' E 139°43'0 0.1
2017-Sep-18 14:29N 35°27' E 139°43'0 0.1
2017-Sep-18 13:59N 35°27' E 139°43'0 0.0
2017-Sep-18 13:28N 35°27' E 139°43'0 0.0
2017-Sep-18 12:58N 35°27' E 139°43'0 0.0
2017-Sep-18 12:28N 35°27' E 139°43'0 0.0
2017-Sep-18 11:59N 35°27' E 139°43'0 0.0
2017-Sep-18 11:29N 35°27' E 139°43'0 0.0
2017-Sep-18 10:59N 35°27' E 139°43'0 0.0
2017-Sep-18 10:28N 35°27' E 139°43'0 0.0
2017-Sep-18 09:59N 35°27' E 139°43'0 0.0
2017-Sep-18 09:29N 35°27' E 139°43'0 0.0
2017-Sep-18 08:58N 35°27' E 139°43'0 0.1
2017-Sep-18 08:28N 35°27' E 139°43'  
Track history (hours):
 
Tides and Currents Weather Stations Pressure Air Temp Water Temp Dewpoint Dewpoint Depression Visibility Wind Speed Wind Dir Waves Ship Positions

Syouhakumaru

Last reported at 2017-Sep-28 08:14 UTC. Time now 2017-Oct-22 23:06 UTC.
Position N 34°37' E 134°57'.
Warning: this ship's position is 24 days out of date.

Length 79 m; draft 4 m.

Type: Cargo ship. MMSI: 431010062.

Date/timePositionNaut miles runAvg speedWind from/ knotsBaromVisibWave heightAir tempDewpointWater temp
2017-Sep-28 08:14N 34°37' E 134°57'411.5
2017-Sep-28 07:55N 34°37' E 135°01'511.8
2017-Sep-28 07:30N 34°36' E 135°07'612.3
2017-Sep-28 06:59N 34°37' E 135°15'612.6
2017-Sep-28 06:31N 34°39' E 135°21'4 0.7
2017-Sep-28 00:41N 34°37' E 135°26'0 0.8
2017-Sep-28 00:31N 34°37' E 135°26'2 3.3
2017-Sep-27 23:46N 34°37' E 135°23'1 2.7
2017-Sep-27 23:30N 34°37' E 135°22'510.8
2017-Sep-27 23:00N 34°36' E 135°16'612.0
2017-Sep-27 22:30N 34°35' E 135°08'612.9
2017-Sep-27 22:00N 34°37' E 135°01'3 0.1
2017-Sep-26 04:41N 34°37' E 134°58'312.7
2017-Sep-26 04:28N 34°37' E 135°01'612.0
2017-Sep-26 04:00N 34°36' E 135°08'612.0
2017-Sep-26 03:30N 34°37' E 135°15'611.0
2017-Sep-26 03:00N 34°36' E 135°22'3 0.5
2017-Sep-25 20:16N 34°35' E 135°26'0 0.0
2017-Sep-25 11:22N 34°35' E 135°26'0 0.0
2017-Sep-25 10:58N 34°35' E 135°26'0 0.0
2017-Sep-25 10:28N 34°35' E 135°26'0 0.0
2017-Sep-25 08:40N 34°35' E 135°26'0 0.0
2017-Sep-25 08:22N 34°35' E 135°26'0 0.8
2017-Sep-25 07:59N 34°35' E 135°25'0 0.1
2017-Sep-25 07:29N 34°35' E 135°25'0 0.1
2017-Sep-25 06:59N 34°35' E 135°25'2 4.1
2017-Sep-25 06:30N 34°35' E 135°23'4 7.6
2017-Sep-25 06:00N 34°31' E 135°24'0 0.0
2017-Sep-25 05:30N 34°31' E 135°24'0 0.0
2017-Sep-25 05:00N 34°31' E 135°24'0 0.0
2017-Sep-25 04:30N 34°31' E 135°24'0 0.0
2017-Sep-25 04:00N 34°31' E 135°24'0 0.0
2017-Sep-25 03:30N 34°31' E 135°24'0 0.0
2017-Sep-25 03:00N 34°31' E 135°24'0 0.0
2017-Sep-25 02:18N 34°31' E 135°24'0 0.0
2017-Sep-25 01:48N 34°31' E 135°24'0 0.0
2017-Sep-25 01:30N 34°31' E 135°24'0 0.0
2017-Sep-25 01:00N 34°31' E 135°24'0 0.0
2017-Sep-24 19:48N 34°31' E 135°24'0 0.0
2017-Sep-24 19:30N 34°31' E 135°24'0 0.0
2017-Sep-24 18:17N 34°31' E 135°24'0 0.0
2017-Sep-24 17:12N 34°31' E 135°24'0 0.0
2017-Sep-24 17:00N 34°31' E 135°24'0 0.0
2017-Sep-24 16:23N 34°31' E 135°24'0 0.0
2017-Sep-24 15:59N 34°31' E 135°24'0 0.0
2017-Sep-24 15:29N 34°31' E 135°24'0 0.0
2017-Sep-24 14:53N 34°31' E 135°24'0 0.0
2017-Sep-24 14:29N 34°31' E 135°24'0 0.0
2017-Sep-24 13:53N 34°31' E 135°24'0 0.0
2017-Sep-24 13:29N 34°31' E 135°24'0 0.0
2017-Sep-24 12:59N 34°31' E 135°24'0 0.0
2017-Sep-24 12:30N 34°31' E 135°24'0 0.0
2017-Sep-24 11:59N 34°31' E 135°24'0 0.0
2017-Sep-24 11:29N 34°31' E 135°24'0 0.0
2017-Sep-24 10:59N 34°31' E 135°24'0 0.0
2017-Sep-24 10:23N 34°31' E 135°24'0 0.0
2017-Sep-24 09:54N 34°31' E 135°24'0 0.0
2017-Sep-24 09:29N 34°31' E 135°24'0 0.0
2017-Sep-24 08:41N 34°31' E 135°24'0 0.0
2017-Sep-24 08:17N 34°31' E 135°24'0 0.0
2017-Sep-24 07:53N 34°31' E 135°24'0 0.0
2017-Sep-24 07:23N 34°31' E 135°24'0 0.0
2017-Sep-24 06:59N 34°31' E 135°24'0 0.0
2017-Sep-24 06:30N 34°31' E 135°24'0 0.0
2017-Sep-24 06:00N 34°31' E 135°24'0 0.0
2017-Sep-24 05:29N 34°31' E 135°24'0 0.0
2017-Sep-24 04:41N 34°31' E 135°24'0 0.0
2017-Sep-24 04:29N 34°31' E 135°24'0 0.0
2017-Sep-24 02:17N 34°31' E 135°24'0 0.0
2017-Sep-24 01:00N 34°31' E 135°24'0 0.0
2017-Sep-24 00:29N 34°31' E 135°24'0 0.0
2017-Sep-23 23:59N 34°31' E 135°24'0 0.0
2017-Sep-23 22:23N 34°31' E 135°24'0 0.0
2017-Sep-23 21:53N 34°31' E 135°24'0 0.0
2017-Sep-23 21:29N 34°31' E 135°24'0 0.0
2017-Sep-23 20:59N 34°31' E 135°24'0 0.0
2017-Sep-23 20:29N 34°31' E 135°24'0 0.0
2017-Sep-23 19:59N 34°31' E 135°24'  
2017-Sep-21 10:13N 34°54' E 139°23'2 9.4
2017-Sep-21 09:59N 34°55' E 139°25'5 9.6
2017-Sep-21 09:30N 34°58' E 139°30'611.2
2017-Sep-21 09:00N 35°02' E 139°35'611.6
2017-Sep-21 08:30N 35°06' E 139°40'510.8
2017-Sep-21 08:00N 35°10' E 139°44'611.0
2017-Sep-21 07:30N 35°15' E 139°46'510.8
2017-Sep-21 07:00N 35°20' E 139°43'510.9
2017-Sep-21 06:30N 35°25' E 139°43'4 8.7
2017-Sep-21 06:00N 35°29' E 139°43'0 0.4
2017-Sep-21 05:30N 35°29' E 139°43'0 0.0
2017-Sep-21 05:00N 35°29' E 139°43'0 0.0
2017-Sep-21 04:30N 35°29' E 139°43'0 0.0
2017-Sep-21 04:00N 35°29' E 139°43'0 0.0
2017-Sep-21 03:30N 35°29' E 139°43'0 0.0
2017-Sep-21 03:00N 35°29' E 139°43'0 0.0
2017-Sep-21 02:30N 35°29' E 139°43'0 0.0
2017-Sep-21 02:00N 35°29' E 139°43'0 0.0
2017-Sep-21 01:30N 35°29' E 139°43'0 0.0
2017-Sep-21 01:00N 35°29' E 139°43'0 0.0
2017-Sep-21 00:30N 35°29' E 139°43'0 0.0
2017-Sep-21 00:00N 35°29' E 139°43'0 0.0
2017-Sep-20 23:27N 35°29' E 139°43'0 0.0
2017-Sep-20 23:00N 35°29' E 139°43'0 0.0
2017-Sep-20 22:30N 35°29' E 139°43'0 0.0
2017-Sep-20 22:00N 35°29' E 139°43'0 0.0
2017-Sep-20 21:30N 35°29' E 139°43'0 0.0
2017-Sep-20 21:00N 35°29' E 139°43'0 0.0
2017-Sep-20 20:30N 35°29' E 139°43'0 0.0
2017-Sep-20 20:00N 35°29' E 139°43'0 0.0
2017-Sep-20 19:30N 35°29' E 139°43'0 0.0
2017-Sep-20 19:00N 35°29' E 139°43'0 0.0
2017-Sep-20 18:30N 35°29' E 139°43'0 0.0
2017-Sep-20 17:57N 35°29' E 139°43'0 0.0
2017-Sep-20 17:30N 35°29' E 139°43'0 0.0
2017-Sep-20 16:57N 35°29' E 139°43'0 0.0
2017-Sep-20 16:30N 35°29' E 139°43'0 0.0
2017-Sep-20 16:00N 35°29' E 139°43'0 0.0
2017-Sep-20 15:29N 35°29' E 139°43'0 0.0
2017-Sep-20 15:00N 35°29' E 139°43'0 0.0
2017-Sep-20 14:00N 35°29' E 139°43'0 0.0
2017-Sep-20 13:30N 35°29' E 139°43'0 0.0
2017-Sep-20 13:00N 35°29' E 139°43'0 0.0
2017-Sep-20 12:30N 35°29' E 139°43'0 0.0
2017-Sep-20 12:00N 35°29' E 139°43'0 0.0
2017-Sep-20 11:29N 35°29' E 139°43'0 0.0
2017-Sep-20 11:00N 35°29' E 139°43'0 0.0
2017-Sep-20 10:30N 35°29' E 139°43'0 0.0
2017-Sep-20 09:59N 35°29' E 139°43'0 0.0
2017-Sep-20 09:29N 35°29' E 139°43'0 0.0
2017-Sep-20 08:57N 35°29' E 139°43'0 0.0
2017-Sep-20 08:30N 35°29' E 139°43'0 0.0
2017-Sep-20 07:56N 35°29' E 139°43'0 0.0
2017-Sep-20 07:30N 35°29' E 139°43'0 0.0
2017-Sep-20 06:56N 35°29' E 139°43'0 0.0
2017-Sep-20 06:30N 35°29' E 139°43'0 0.0
2017-Sep-20 05:56N 35°29' E 139°43'0 0.0
2017-Sep-20 05:27N 35°29' E 139°43'0 0.0
2017-Sep-20 04:59N 35°29' E 139°43'0 0.0
2017-Sep-20 04:30N 35°29' E 139°43'0 0.0
2017-Sep-20 03:59N 35°29' E 139°43'0 0.0
2017-Sep-20 03:30N 35°29' E 139°43'0 0.0
2017-Sep-20 02:59N 35°29' E 139°43'0 0.0
2017-Sep-20 02:30N 35°29' E 139°43'0 0.0
2017-Sep-20 02:00N 35°29' E 139°43'0 0.0
2017-Sep-20 01:29N 35°29' E 139°43'0 0.0
2017-Sep-20 00:59N 35°29' E 139°43'0 0.0
2017-Sep-20 00:30N 35°29' E 139°43'0 0.0
2017-Sep-19 23:59N 35°29' E 139°43'0 0.0
2017-Sep-19 23:30N 35°29' E 139°43'0 0.6
2017-Sep-19 23:00N 35°29' E 139°43'2 4.4
2017-Sep-19 22:30N 35°27' E 139°42'0 0.0
2017-Sep-19 22:00N 35°27' E 139°42'0 0.0
2017-Sep-19 21:30N 35°27' E 139°42'0 0.0
2017-Sep-19 21:00N 35°27' E 139°42'0 0.0
2017-Sep-19 20:30N 35°27' E 139°42'0 0.0
2017-Sep-19 20:00N 35°27' E 139°42'0 0.0
2017-Sep-19 19:30N 35°27' E 139°42'0 0.0
2017-Sep-19 19:00N 35°27' E 139°42'0 0.1
2017-Sep-19 18:30N 35°27' E 139°42'0 0.0
2017-Sep-19 18:00N 35°27' E 139°42'0 0.0
2017-Sep-19 17:30N 35°27' E 139°42'0 0.0
2017-Sep-19 17:00N 35°27' E 139°42'1 1.3
2017-Sep-19 16:31N 35°28' E 139°42'1 1.4
2017-Sep-19 15:58N 35°28' E 139°42'0 0.0
2017-Sep-19 15:28N 35°28' E 139°42'0 0.1
2017-Sep-19 14:58N 35°28' E 139°42'0 0.1
2017-Sep-19 14:28N 35°28' E 139°42'0 0.0
2017-Sep-19 13:58N 35°28' E 139°42'0 0.0
2017-Sep-19 13:28N 35°28' E 139°42'0 0.0
2017-Sep-19 12:58N 35°28' E 139°42'0 0.0
2017-Sep-19 12:28N 35°28' E 139°42'0 0.0
2017-Sep-19 11:58N 35°28' E 139°42'0 0.0
2017-Sep-19 11:28N 35°28' E 139°42'0 0.0
2017-Sep-19 10:58N 35°28' E 139°42'0 0.0
2017-Sep-19 10:28N 35°28' E 139°42'0 0.0
2017-Sep-19 09:58N 35°28' E 139°42'0 0.1
2017-Sep-19 09:28N 35°28' E 139°42'0 0.1
2017-Sep-19 08:58N 35°28' E 139°42'0 0.0
2017-Sep-19 08:28N 35°28' E 139°42'0 0.0
2017-Sep-19 07:58N 35°28' E 139°42'0 0.0
2017-Sep-19 07:28N 35°28' E 139°42'0 0.0
2017-Sep-19 06:59N 35°28' E 139°42'2 3.5
2017-Sep-19 06:30N 35°27' E 139°43'0 0.0
2017-Sep-19 05:58N 35°27' E 139°43'0 0.0
2017-Sep-19 05:28N 35°27' E 139°43'0 0.0
2017-Sep-19 04:59N 35°27' E 139°43'0 0.0
2017-Sep-19 04:28N 35°27' E 139°43'0 0.0
2017-Sep-19 03:59N 35°27' E 139°43'0 0.1
2017-Sep-19 03:28N 35°27' E 139°43'0 0.0
2017-Sep-19 02:59N 35°27' E 139°43'0 0.0
2017-Sep-19 02:29N 35°27' E 139°43'0 0.0
2017-Sep-19 01:58N 35°27' E 139°43'0 0.0
2017-Sep-19 01:29N 35°27' E 139°43'0 0.0
2017-Sep-19 00:58N 35°27' E 139°43'0 0.0
2017-Sep-19 00:29N 35°27' E 139°43'0 0.0
2017-Sep-18 23:58N 35°27' E 139°43'0 0.1
2017-Sep-18 23:28N 35°27' E 139°43'0 0.1
2017-Sep-18 22:58N 35°27' E 139°43'0 0.1
2017-Sep-18 22:29N 35°27' E 139°43'0 0.0
2017-Sep-18 21:59N 35°27' E 139°43'0 0.0
2017-Sep-18 21:29N 35°27' E 139°43'0 0.0
2017-Sep-18 20:59N 35°27' E 139°43'0 0.0
2017-Sep-18 20:29N 35°27' E 139°43'0 0.1
2017-Sep-18 19:59N 35°27' E 139°43'0 0.1
2017-Sep-18 19:29N 35°27' E 139°43'0 0.1
2017-Sep-18 18:59N 35°27' E 139°43'0 0.0
2017-Sep-18 18:29N 35°27' E 139°43'0 0.0
2017-Sep-18 17:59N 35°27' E 139°43'0 0.0
2017-Sep-18 17:29N 35°27' E 139°43'0 0.0
2017-Sep-18 16:59N 35°27' E 139°43'0 0.0
2017-Sep-18 16:29N 35°27' E 139°43'0 0.0
2017-Sep-18 15:59N 35°27' E 139°43'0 0.0
2017-Sep-18 15:29N 35°27' E 139°43'0 0.1
2017-Sep-18 14:59N 35°27' E 139°43'0 0.1
2017-Sep-18 14:29N 35°27' E 139°43'0 0.1
2017-Sep-18 13:59N 35°27' E 139°43'0 0.0
2017-Sep-18 13:28N 35°27' E 139°43'0 0.0
2017-Sep-18 12:58N 35°27' E 139°43'0 0.0
2017-Sep-18 12:28N 35°27' E 139°43'0 0.0
2017-Sep-18 11:59N 35°27' E 139°43'0 0.0
2017-Sep-18 11:29N 35°27' E 139°43'0 0.0
2017-Sep-18 10:59N 35°27' E 139°43'0 0.0
2017-Sep-18 10:28N 35°27' E 139°43'0 0.0
2017-Sep-18 09:59N 35°27' E 139°43'0 0.0
2017-Sep-18 09:29N 35°27' E 139°43'0 0.0
2017-Sep-18 08:58N 35°27' E 139°43'0 0.1
2017-Sep-18 08:28N 35°27' E 139°43'  

Dump ship's entire track history